Latest Weather Observations for Horsham

IDV60801

Issued at 12:32 pm EDT Tuesday 20 February 2018 (issued every 30 minutes, with the page automatically refreshed every 10 minutes)

About weather observations | Map of weather stations | Latest weather observations for VIC | Other Formats
Station Details ID: 079100 Name: HORSHAM AERODROME Lat: -36.67 Lon: 142.17 Height: 133.8 m
Data from the previous 72 hours. | See also: Recent months at Horsham
Date/Time
EDT
Temp
°C
App
Temp
°C
Dew
Point
°C
Rel
Hum
%
Delta-T
°C
Wind Press
QNH
hPa
Press
MSL
hPa
Rain since
9am
mm
Dir  Spd
km/h
Gust
km/h
Spd
kts
Gust
kts
20/12:30pm 28.8 24.3 11.4 34 10.1 ENE 26 39 14 21 1015.5 1015.0 0.0
20/12:00pm 27.6 22.8 11.6 37 9.2 NE 28 39 15 21 1015.9 1015.4 0.0
20/11:30am 27.5 21.9 11.5 37 9.2 ENE 32 57 17 31 1016.1 1015.6 0.0
20/11:29am 27.3 21.6 11.3 37 9.2 ENE 32 57 17 31 1016.1 1015.6 0.0
20/11:00am 25.9 20.1 11.6 40 8.2 ENE 33 44 18 24 1016.3 1015.8 0.0
20/10:30am 24.1 18.3 11.4 45 7.2 ENE 33 41 18 22 1016.5 1016.0 0.0
20/10:00am 22.9 17.1 11.6 49 6.4 E 33 43 18 23 1016.5 1016.0 0.0
20/09:30am 22.0 16.4 11.4 51 5.9 E 32 43 17 23 1016.4 1015.9 0.0
20/09:00am 19.9 14.1 11.4 58 4.7 E 33 43 18 23 1016.1 1015.6 0.0
20/08:30am 18.5 12.9 11.6 64 3.8 ESE 32 43 17 23 1015.8 1015.3 0.0
20/08:00am 17.4 12.1 11.4 68 3.3 ESE 30 37 16 20 1015.7 1015.2 0.0
20/07:30am 16.3 11.5 11.5 73 2.6 ESE 28 37 15 20 1015.4 1014.9 0.0
20/07:00am 15.7 12.0 11.5 76 2.3 E 22 30 12 16 1015.3 1014.8 0.0
20/06:30am 16.0 11.2 11.6 75 2.4 ESE 28 35 15 19 1015.1 1014.6 0.0
20/06:00am 16.2 11.8 11.8 75 2.4 ESE 26 32 14 17 1014.9 1014.4 0.0
20/05:30am 16.8 12.8 11.9 73 2.7 ESE 24 28 13 15 1014.8 1014.3 0.0
20/05:00am 16.9 13.7 12.0 73 2.7 ESE 20 24 11 13 1014.8 1014.3 0.0
20/04:30am 16.6 13.6 12.0 74 2.5 ESE 19 22 10 12 1014.7 1014.2 0.0
20/04:00am 17.0 13.9 12.1 73 2.7 ESE 20 26 11 14 1014.8 1014.3 0.0
20/03:30am 16.4 14.6 12.2 76 2.3 ESE 13 17 7 9 1014.9 1014.4 0.0
20/03:00am 17.0 13.2 12.3 74 2.6 ESE 24 32 13 17 1014.9 1014.4 0.0
20/02:30am 17.4 13.6 12.5 73 2.7 ESE 24 33 13 18 1015.2 1014.7 0.0
20/02:00am 17.6 13.4 12.3 71 2.9 SE 26 33 14 18 1015.3 1014.8 0.0
20/01:30am 17.9 13.3 12.4 70 3.1 ESE 28 33 15 18 1015.4 1014.9 0.0
20/01:00am 18.4 13.6 12.8 70 3.2 SE 30 37 16 20 1015.1 1014.6 0.0
20/12:30am 18.9 13.5 12.9 68 3.4 ESE 33 44 18 24 1014.7 1014.2 0.0
20/12:00am 19.1 13.3 12.8 67 3.6 ESE 35 44 19 24 1014.3 1013.8 0.0
 
Date/Time
EDT
Temp
°C
App
Temp
°C
Dew
Point
°C
Rel
Hum
%
Delta-T
°C
Wind Press
QNH
hPa
Press
MSL
hPa
Rain since
9am
mm
Dir  Spd
km/h
Gust
km/h
Spd
kts
Gust
kts
19/11:30pm 18.9 14.9 12.9 68 3.4 ESE 26 33 14 18 1014.5 1014.0 0.0
19/11:00pm 19.4 15.1 13.1 67 3.6 SE 28 35 15 19 1014.8 1014.3 0.0
19/10:30pm 19.7 14.5 12.9 65 3.9 SE 32 39 17 21 1014.7 1014.2 0.0
19/10:00pm 19.9 14.2 12.9 64 4.0 SE 35 44 19 24 1014.2 1013.7 0.0
19/09:30pm 20.6 14.8 12.8 61 4.4 SE 35 57 19 31 1013.7 1013.2 0.0
19/09:26pm 20.5 15.7 13.0 62 4.3 SE 30 48 16 26 1013.7 1013.2 0.0
19/09:00pm 21.0 15.6 12.7 59 4.7 ESE 33 41 18 22 1013.4 1013.0 0.0
19/08:30pm 21.6 15.9 13.0 58 4.9 SE 35 46 19 25 1013.6 1013.1 0.0
19/08:00pm 22.5 15.9 12.7 54 5.6 SE 39 50 21 27 1013.1 1012.7 0.0
19/07:30pm 23.4 16.1 12.7 51 6.2 SE 43 52 23 28 1012.9 1012.5 0.0
19/07:00pm 24.8 18.2 12.7 47 7.0 SE 39 50 21 27 1012.9 1012.5 0.0
19/06:30pm 25.2 17.7 12.1 44 7.5 SE 43 56 23 30 1012.8 1012.4 0.0
19/06:00pm 26.0 18.2 11.7 41 8.2 SE 44 54 24 29 1012.7 1012.2 0.0
19/05:30pm 26.7 18.7 11.2 38 8.8 SE 44 54 24 29 1012.5 1012.0 0.0
19/05:00pm 27.7 20.6 10.9 35 9.6 SE 39 50 21 27 1012.4 1011.9 0.0
19/04:30pm 27.7 20.5 10.4 34 9.8 SE 39 52 21 28 1012.5 1012.0 0.0
19/04:00pm 28.1 21.2 10.3 33 10.1 SE 37 48 20 26 1012.8 1012.4 0.0
19/03:30pm 27.6 21.7 10.3 34 9.8 SE 32 43 17 23 1013.0 1012.6 0.0
19/03:02pm 27.6 22.6 10.8 35 9.6 SE 28 46 15 25 1013.1 1012.7 0.0
19/03:00pm 27.6 22.9 10.8 35 9.6 SE 26 43 14 23 1013.2 1012.8 0.0
19/02:36pm 27.5 22.7 11.5 37 9.2 ESE 28 46 15 25 1013.6 1013.1 0.0
19/02:30pm 27.1 21.5 10.3 35 9.5 SE 30 37 16 20 1013.8 1013.3 0.0
19/02:00pm 26.7 21.9 11.6 39 8.7 SE 28 39 15 21 1013.9 1013.4 0.0
19/01:32pm 26.4 21.1 11.3 39 8.6 ESE 30 56 16 30 1014.1 1013.6 0.0
19/01:30pm 26.1 21.3 11.8 41 8.2 SE 28 43 15 23 1014.2 1013.7 0.0
19/01:00pm 25.1 19.3 11.6 42 7.7 ESE 33 43 18 23 1014.4 1013.9 0.0
19/12:30pm 25.0 19.0 12.2 44 7.4 SE 35 46 19 25 1014.7 1014.2 0.0
19/12:00pm 22.9 16.9 12.2 51 6.1 SE 35 44 19 24 1015.0 1014.5 0.0
19/11:30am 23.2 16.6 12.5 51 6.1 ESE 39 52 21 28 1015.0 1014.5 0.0
19/11:00am 23.2 17.2 12.2 50 6.3 SE 35 44 19 24 1015.0 1014.5 0.0
19/10:30am 21.8 15.1 12.4 55 5.3 SE 39 48 21 26 1015.2 1014.7 0.0
19/10:00am 20.7 14.1 12.7 60 4.6 SE 39 54 21 29 1014.9 1014.4 0.0
19/09:30am 20.0 13.9 13.0 64 4.0 SE 37 48 20 26 1014.7 1014.2 0.0
19/09:00am 19.7 13.7 13.2 66 3.7 SE 37 48 20 26 1014.8 1014.3 0.0
19/08:30am 18.6 12.1 13.0 70 3.2 SE 39 50 21 27 1014.6 1014.1 0.0
19/08:00am 17.8 12.1 12.9 73 2.8 SE 35 46 19 25 1014.4 1013.9 0.0
19/07:30am 17.0 11.6 12.9 77 2.3 SE 33 43 18 23 1014.1 1013.6 0.0
19/07:00am 17.0 11.3 13.1 78 2.2 SE 35 44 19 24 1013.6 1013.1 0.0
19/06:30am 17.3 12.2 13.2 77 2.3 SE 32 50 17 27 1013.0 1012.6 0.0
19/06:00am 17.9 13.3 13.4 75 2.6 SE 30 39 16 21 1012.9 1012.5 0.0
19/05:30am 18.2 13.5 13.3 73 2.8 SE 30 41 16 22 1012.9 1012.5 0.0
19/05:00am 18.3 14.3 13.0 71 3.0 SE 26 39 14 21 1012.9 1012.5 0.0
19/04:30am 18.0 13.7 13.1 73 2.8 SE 28 37 15 20 1012.9 1012.5 0.0
19/04:00am 17.9 13.8 12.8 72 2.9 SE 26 33 14 18 1012.7 1012.2 0.0
19/03:46am 18.0 14.8 13.1 73 2.8 SE 22 37 12 20 1012.6 1012.1 0.0
19/03:30am 17.3 15.9 13.4 78 2.2 SSE 13 17 7 9 1012.8 1012.4 0.0
19/03:00am 17.3 15.4 13.0 76 2.4 SSE 15 19 8 10 1012.8 1012.4 0.0
19/02:30am 17.6 15.7 12.9 74 2.6 S 15 20 8 11 1013.1 1012.7 0.0
19/02:00am 18.1 16.6 13.2 73 2.8 SSE 13 15 7 8 1013.3 1012.9 0.0
19/01:30am 18.3 16.1 13.2 72 2.9 SSE 17 20 9 11 1013.4 1013.0 0.0
19/01:00am 18.7 16.1 13.1 70 3.2 SSE 19 24 10 13 1013.7 1013.2 0.0
19/12:30am 19.0 17.1 13.0 68 3.4 SSE 15 20 8 11 1013.7 1013.2 0.0
19/12:00am 19.2 16.3 12.9 67 3.6 SSE 20 24 11 13 1013.7 1013.2 0.0
 
Date/Time
EDT
Temp
°C
App
Temp
°C
Dew
Point
°C
Rel
Hum
%
Delta-T
°C
Wind Press
QNH
hPa
Press
MSL
hPa
Rain since
9am
mm
Dir  Spd
km/h
Gust
km/h
Spd
kts
Gust
kts
18/11:30pm 19.7 16.4 12.7 64 4.0 S 22 28 12 15 1013.8 1013.3 0.0
18/11:00pm 19.9 15.8 12.7 63 4.1 S 26 33 14 18 1013.6 1013.1 0.0
18/10:30pm 20.6 16.9 12.6 60 4.5 S 24 30 13 16 1013.4 1013.0 0.0
18/10:00pm 21.7 18.7 12.5 56 5.2 S 20 24 11 13 1013.3 1012.9 0.0
18/09:30pm 22.0 19.7 11.7 52 5.8 S 15 17 8 9 1012.9 1012.5 0.0
18/09:00pm 22.5 20.9 11.6 50 6.1 SSW 11 15 6 8 1012.7 1012.2 0.0
18/08:30pm 22.8 21.7 11.8 50 6.2 SSE 9 13 5 7 1012.3 1011.8 0.0
18/08:00pm 23.5 21.6 11.9 48 6.6 SSE 13 17 7 9 1012.0 1011.5 0.0
18/07:30pm 23.5 21.6 11.9 48 6.6 S 13 15 7 8 1012.3 1011.8 0.0
18/07:00pm 23.5 21.6 11.9 48 6.6 SSW 13 15 7 8 1012.3 1011.8 0.0
18/06:30pm 23.7 22.1 11.4 46 6.9 SSW 11 13 6 7 1012.0 1011.5 0.0
18/06:00pm 23.8 20.6 11.2 45 7.1 S 19 22 10 12 1011.9 1011.4 0.0
18/05:30pm 23.5 20.0 12.2 49 6.5 SSW 22 28 12 15 1011.7 1011.2 0.0
18/05:00pm 25.0 19.0 10.8 41 8.0 SSW 33 41 18 22 1011.8 1011.3 0.0
18/04:30pm 26.3 20.3 10.0 36 9.1 SW 32 41 17 22 1011.7 1011.2 0.0
18/04:00pm 27.2 22.6 9.5 33 9.9 SW 24 35 13 19 1011.3 1010.8 0.0
18/03:30pm 27.8 24.5 9.6 32 10.2 SSW 17 28 9 15 1011.0 1010.5 0.0
18/03:00pm 29.0 24.4 9.7 30 10.9 SSW 24 32 13 17 1011.2 1010.7 0.0
18/02:30pm 29.0 25.0 9.2 29 11.1 WSW 20 30 11 16 1011.5 1011.0 0.0
18/02:00pm 28.5 25.0 8.7 29 10.9 SSW 17 28 9 15 1011.9 1011.4 0.0
18/01:30pm 28.2 24.6 8.5 29 10.8 SW 17 26 9 14 1012.1 1011.6 0.0
18/01:00pm 27.9 25.3 9.2 31 10.4 WSW 13 22 7 12 1012.2 1011.7 0.0
18/12:30pm 28.4 25.1 9.6 31 10.5 SSW 17 24 9 13 1012.3 1011.8 0.0
18/12:00pm 28.1 25.5 9.4 31 10.4 SW 13 28 7 15 1012.3 1011.8 0.0
18/11:30am 26.6 24.3 9.0 33 9.7 SSW 11 19 6 10 1012.5 1012.0 0.0
18/11:00am 26.1 24.7 9.0 34 9.4 NNW 6 9 3 5 1012.5 1012.0 0.0
18/10:30am 24.9 23.7 10.4 40 8.1 NE 7 11 4 6 1012.4 1011.9 0.0
18/10:00am 23.4 21.6 10.8 45 7.0 E 11 17 6 9 1012.5 1012.0 0.0
18/09:30am 21.9 19.6 11.6 52 5.8 ESE 15 20 8 11 1012.4 1011.9 0.0
18/09:00am 19.4 17.5 11.9 62 4.2 ESE 13 15 7 8 1012.2 1011.7 0.0
18/08:30am 18.2 16.3 11.7 66 3.6 ESE 13 17 7 9 1012.2 1011.7 0.0
18/08:00am 16.2 14.8 12.2 77 2.2 ESE 11 15 6 8 1011.7 1011.2 0.0
18/07:30am 14.6 12.9 11.2 80 1.8 ESE 11 17 6 9 1011.0 1010.5 0.0
18/07:00am 13.7 10.7 10.7 82 1.6 ESE 17 19 9 10 1010.7 1010.2 0.0
18/06:30am 13.9 10.5 10.5 80 1.8 ESE 19 20 10 11 1010.4 1009.9 0.0
18/06:00am 14.2 11.2 10.6 79 1.9 ESE 17 19 9 10 1010.6 1010.1 0.0
18/05:30am 13.0 11.6 9.4 79 1.8 ESE 7 9 4 5 1010.6 1010.1 0.0
18/05:00am 11.7 8.8 8.0 78 1.8 ESE 13 15 7 8 1010.6 1010.1 0.0
18/04:30am 12.0 8.5 7.3 73 2.3 ESE 15 17 8 9 1010.6 1010.1 0.0
18/04:00am 12.5 10.6 7.4 71 2.5 ESE 7 7 4 4 1011.0 1010.5 0.0
18/03:30am 13.3 10.8 8.4 72 2.5 SSE 11 13 6 7 1011.6 1011.1 0.0
18/03:00am 14.1 12.3 7.9 66 3.1 S 7 9 4 5 1011.6 1011.1 0.0
18/02:30am 14.9 12.7 7.9 63 3.5 SW 9 11 5 6 1011.6 1011.1 0.0
18/02:00am 15.7 13.4 7.5 58 4.1 SW 9 11 5 6 1011.7 1011.2 0.0
18/01:30am 16.1 13.7 6.8 54 4.6 SW 9 11 5 6 1011.7 1011.2 0.0
18/01:00am 16.4 14.0 8.6 60 4.0 SE 11 13 6 7 1012.0 1011.5 0.0
18/12:30am 16.7 14.4 7.6 55 4.6 SSE 9 13 5 7 1011.9 1011.4 0.0
18/12:00am 16.1 11.8 7.1 55 4.5 ESE 19 19 10 10 1011.6 1011.1 0.0
 
Date/Time
EDT
Temp
°C
App
Temp
°C
Dew
Point
°C
Rel
Hum
%
Delta-T
°C
Wind Press
QNH
hPa
Press
MSL
hPa
Rain since
9am
mm
Dir  Spd
km/h
Gust
km/h
Spd
kts
Gust
kts
17/11:30pm 16.2 13.1 5.5 49 5.2 S 11 22 6 12 1012.0 1011.5 0.0
17/11:00pm 20.2 16.6 6.9 42 6.8 SW 15 17 8 9 1012.0 1011.5 0.0
17/10:30pm 21.0 17.4 6.9 40 7.2 WSW 15 17 8 9 1011.9 1011.4 0.0
17/10:00pm 22.2 19.4 6.8 37 7.9 WSW 11 13 6 7 1011.4 1010.9 0.0
17/09:30pm 21.3 18.8 6.4 38 7.6 SW 9 13 5 7 1011.2 1010.7 0.0
17/09:00pm 22.6 20.1 6.4 35 8.3 SW 9 11 5 6 1011.0 1010.5 0.0
17/08:30pm 24.1 21.6 6.4 32 9.2 WSW 9 11 5 6 1011.0 1010.5 0.0
17/08:00pm 25.9 23.0 6.5 29 10.2 WSW 11 15 6 8 1010.9 1010.4 0.0
17/07:30pm 27.2 24.8 7.1 28 10.7 W 9 15 5 8 1010.6 1010.1 0.0
17/07:00pm 27.5 24.7 6.8 27 11.0 SW 11 19 6 10 1010.4 1009.9 0.0
17/06:30pm 27.5 23.8 6.3 26 11.2 SW 15 26 8 14 1010.6 1010.1 0.0
17/06:00pm 27.9 24.3 6.6 26 11.3 WSW 15 22 8 12 1010.8 1010.3 0.0
17/05:30pm 28.0 23.6 6.7 26 11.3 WSW 19 28 10 15 1011.0 1010.5 0.0
17/05:00pm 28.1 23.8 6.8 26 11.4 SW 19 28 10 15 1010.9 1010.4 0.0
17/04:30pm 27.2 22.1 6.0 26 11.1 SW 22 32 12 17 1010.9 1010.4 0.0
17/04:00pm 28.5 23.2 6.6 25 11.7 SW 24 37 13 20 1011.3 1010.8 0.0
17/03:30pm 27.7 23.2 7.0 27 11.1 W 20 32 11 17 1011.3 1010.8 0.0
17/03:04pm 27.9 23.5 7.2 27 11.1 W 20 41 11 22 1011.5 1011.0 0.0
17/03:00pm 27.3 22.8 6.1 26 11.1 W 19 32 10 17 1011.5 1011.0 0.0
17/02:30pm 27.5 22.2 6.8 27 11.0 WSW 24 33 13 18 1011.9 1011.4 0.0
17/02:00pm 26.6 22.4 7.6 30 10.2 WNW 19 35 10 19 1012.2 1011.7 0.0
17/01:30pm 25.8 21.8 8.3 33 9.5 W 19 32 10 17 1012.4 1011.9 0.0
17/01:00pm 24.6 21.7 8.1 35 8.8 WNW 13 26 7 14 1013.0 1012.6 0.0

Other Formats:

Comma delimited format used in spreadsheet applications
http://www.bom.gov.au/fwo/IDV60801/IDV60801.95839.axf

JavaScript Object Notation format (JSON) in row-major order
http://www.bom.gov.au/fwo/IDV60801/IDV60801.95839.json